sensor_id;sensor_type;location;lat;lon;timestamp;temperature;humidity
17968;DHT22;9109;48.050;11.696;2023-05-14T03:46:56;10.20;99.90
17968;DHT22;9109;48.050;11.696;2023-05-14T03:49:59;10.20;99.90
17968;DHT22;9109;48.050;11.696;2023-05-14T03:53:01;10.30;99.90
17968;DHT22;9109;48.050;11.696;2023-05-14T03:56:03;10.30;99.90
17968;DHT22;9109;48.050;11.696;2023-05-14T03:59:05;10.30;99.90
17968;DHT22;9109;48.050;11.696;2023-05-14T04:02:09;10.30;99.90
17968;DHT22;9109;48.050;11.696;2023-05-14T04:05:15;10.30;99.90
17968;DHT22;9109;48.050;11.696;2023-05-14T04:08:17;10.30;99.90
17968;DHT22;9109;48.050;11.696;2023-05-14T04:11:21;10.10;99.90
17968;DHT22;9109;48.050;11.696;2023-05-14T04:14:26;10.00;99.90
17968;DHT22;9109;48.050;11.696;2023-05-14T04:17:55;10.10;99.90
17968;DHT22;9109;48.050;11.696;2023-05-14T04:21:22;10.20;99.90
17968;DHT22;9109;48.050;11.696;2023-05-14T04:25:31;10.20;99.90
17968;DHT22;9109;48.050;11.696;2023-05-14T04:29:13;10.20;99.90
17968;DHT22;9109;48.050;11.696;2023-05-14T04:33:09;10.30;99.90
17968;DHT22;9109;48.050;11.696;2023-05-14T04:36:44;10.20;99.90
17968;DHT22;9109;48.050;11.696;2023-05-14T04:39:46;10.10;99.90
17968;DHT22;9109;48.050;11.696;2023-05-14T04:42:48;10.20;99.90
17968;DHT22;9109;48.050;11.696;2023-05-14T04:45:50;10.20;99.90
17968;DHT22;9109;48.050;11.696;2023-05-14T04:48:53;10.20;99.90
17968;DHT22;9109;48.050;11.696;2023-05-14T04:51:55;10.20;99.90
17968;DHT22;9109;48.050;11.696;2023-05-14T04:54:58;10.10;99.90
17968;DHT22;9109;48.050;11.696;2023-05-14T04:58:00;10.20;99.90
17968;DHT22;9109;48.050;11.696;2023-05-14T05:01:02;10.20;99.90
17968;DHT22;9109;48.050;11.696;2023-05-14T05:04:06;10.20;99.90
17968;DHT22;9109;48.050;11.696;2023-05-14T05:07:08;10.20;99.90
17968;DHT22;9109;48.050;11.696;2023-05-14T05:10:10;10.30;99.90
17968;DHT22;9109;48.050;11.696;2023-05-14T05:13:12;10.40;99.90
17968;DHT22;9109;48.050;11.696;2023-05-14T05:16:16;10.60;99.90
17968;DHT22;9109;48.050;11.696;2023-05-14T05:19:19;10.60;99.90
17968;DHT22;9109;48.050;11.696;2023-05-14T05:22:21;10.60;99.90
17968;DHT22;9109;48.050;11.696;2023-05-14T05:25:23;10.60;99.90
17968;DHT22;9109;48.050;11.696;2023-05-14T05:28:25;10.60;99.90
17968;DHT22;9109;48.050;11.696;2023-05-14T05:31:27;10.60;99.90
17968;DHT22;9109;48.050;11.696;2023-05-14T05:34:32;10.70;99.90
17968;DHT22;9109;48.050;11.696;2023-05-14T05:37:33;10.80;99.90
17968;DHT22;9109;48.050;11.696;2023-05-14T05:44:33;10.80;99.90
17968;DHT22;9109;48.050;11.696;2023-05-14T05:47:35;10.90;99.90
17968;DHT22;9109;48.050;11.696;2023-05-14T05:50:38;10.90;99.90
17968;DHT22;9109;48.050;11.696;2023-05-14T05:53:40;10.80;99.90
17968;DHT22;9109;48.050;11.696;2023-05-14T05:56:42;10.80;99.90
17968;DHT22;9109;48.050;11.696;2023-05-14T05:59:44;10.80;99.90
17968;DHT22;9109;48.050;11.696;2023-05-14T06:02:49;10.70;99.90
17968;DHT22;9109;48.050;11.696;2023-05-14T06:05:53;10.70;99.90
17968;DHT22;9109;48.050;11.696;2023-05-14T06:08:55;10.70;99.90
17968;DHT22;9109;48.050;11.696;2023-05-14T06:11:57;10.70;99.90
17968;DHT22;9109;48.050;11.696;2023-05-14T06:14:59;10.80;99.90
17968;DHT22;9109;48.050;11.696;2023-05-14T06:18:12;11.00;99.90
17968;DHT22;9109;48.050;11.696;2023-05-14T06:21:15;11.10;99.90
17968;DHT22;9109;48.050;11.696;2023-05-14T06:24:17;11.00;99.90
17968;DHT22;9109;48.050;11.696;2023-05-14T06:27:19;11.10;99.90
17968;DHT22;9109;48.050;11.696;2023-05-14T06:30:21;11.10;99.90
17968;DHT22;9109;48.050;11.696;2023-05-14T06:33:23;11.10;99.90
17968;DHT22;9109;48.050;11.696;2023-05-14T06:36:31;11.10;99.90
17968;DHT22;9109;48.050;11.696;2023-05-14T06:39:33;11.10;99.90
17968;DHT22;9109;48.050;11.696;2023-05-14T06:42:35;11.10;99.90
17968;DHT22;9109;48.050;11.696;2023-05-14T06:45:51;11.00;99.90
17968;DHT22;9109;48.050;11.696;2023-05-14T06:48:58;11.10;99.90
17968;DHT22;9109;48.050;11.696;2023-05-14T06:52:02;11.20;99.90
17968;DHT22;9109;48.050;11.696;2023-05-14T06:55:05;11.10;99.90
17968;DHT22;9109;48.050;11.696;2023-05-14T06:58:08;11.00;99.90
17968;DHT22;9109;48.050;11.696;2023-05-14T07:01:10;10.90;99.90
17968;DHT22;9109;48.050;11.696;2023-05-14T07:04:12;10.80;99.90
17968;DHT22;9109;48.050;11.696;2023-05-14T07:07:16;10.90;99.90
17968;DHT22;9109;48.050;11.696;2023-05-14T07:10:20;11.00;99.90
17968;DHT22;9109;48.050;11.696;2023-05-14T07:13:22;11.10;99.90
17968;DHT22;9109;48.050;11.696;2023-05-14T07:16:25;11.10;99.90
17968;DHT22;9109;48.050;11.696;2023-05-14T07:19:28;11.10;99.90
17968;DHT22;9109;48.050;11.696;2023-05-14T07:22:31;11.10;99.90
17968;DHT22;9109;48.050;11.696;2023-05-14T07:25:33;11.20;99.90
17968;DHT22;9109;48.050;11.696;2023-05-14T07:28:35;11.10;99.90
17968;DHT22;9109;48.050;11.696;2023-05-14T07:31:37;11.20;99.90
17968;DHT22;9109;48.050;11.696;2023-05-14T07:34:39;11.00;99.90
17968;DHT22;9109;48.050;11.696;2023-05-14T07:37:42;11.10;99.90
17968;DHT22;9109;48.050;11.696;2023-05-14T07:40:45;11.10;99.90
17968;DHT22;9109;48.050;11.696;2023-05-14T07:43:46;11.30;99.90
17968;DHT22;9109;48.050;11.696;2023-05-14T07:46:51;11.30;99.90
17968;DHT22;9109;48.050;11.696;2023-05-14T07:49:54;11.40;99.90
17968;DHT22;9109;48.050;11.696;2023-05-14T07:52:57;11.20;99.90
17968;DHT22;9109;48.050;11.696;2023-05-14T07:55:59;11.20;99.90
17968;DHT22;9109;48.050;11.696;2023-05-14T07:59:01;11.30;99.90
17968;DHT22;9109;48.050;11.696;2023-05-14T08:02:03;11.40;99.90
17968;DHT22;9109;48.050;11.696;2023-05-14T08:05:06;11.30;99.90
17968;DHT22;9109;48.050;11.696;2023-05-14T08:08:10;11.40;99.90
17968;DHT22;9109;48.050;11.696;2023-05-14T08:11:13;11.50;99.90
17968;DHT22;9109;48.050;11.696;2023-05-14T08:14:15;11.50;99.90
17968;DHT22;9109;48.050;11.696;2023-05-14T08:17:17;11.50;99.90
17968;DHT22;9109;48.050;11.696;2023-05-14T08:20:19;11.50;99.90
17968;DHT22;9109;48.050;11.696;2023-05-14T08:23:23;11.50;99.90
17968;DHT22;9109;48.050;11.696;2023-05-14T08:26:25;11.50;99.90
17968;DHT22;9109;48.050;11.696;2023-05-14T08:29:27;11.50;99.90
17968;DHT22;9109;48.050;11.696;2023-05-14T08:32:29;11.60;99.90
17968;DHT22;9109;48.050;11.696;2023-05-14T08:35:31;11.40;99.90
17968;DHT22;9109;48.050;11.696;2023-05-14T08:38:34;11.30;99.90
17968;DHT22;9109;48.050;11.696;2023-05-14T08:41:36;11.40;99.90
17968;DHT22;9109;48.050;11.696;2023-05-14T08:44:46;11.40;99.90
17968;DHT22;9109;48.050;11.696;2023-05-14T08:47:50;11.40;99.90
17968;DHT22;9109;48.050;11.696;2023-05-14T08:50:52;11.50;99.90
17968;DHT22;9109;48.050;11.696;2023-05-14T08:53:58;11.60;99.90
17968;DHT22;9109;48.050;11.696;2023-05-14T08:57:03;11.50;99.90
17968;DHT22;9109;48.050;11.696;2023-05-14T09:00:07;11.50;99.90
17968;DHT22;9109;48.050;11.696;2023-05-14T09:03:11;11.50;99.90
17968;DHT22;9109;48.050;11.696;2023-05-14T09:06:14;11.50;99.90
17968;DHT22;9109;48.050;11.696;2023-05-14T09:09:18;11.70;99.90
17968;DHT22;9109;48.050;11.696;2023-05-14T09:12:22;11.80;99.90
17968;DHT22;9109;48.050;11.696;2023-05-14T09:15:26;11.80;99.90
17968;DHT22;9109;48.050;11.696;2023-05-14T09:18:29;11.80;99.90
17968;DHT22;9109;48.050;11.696;2023-05-14T09:21:31;11.70;99.90
17968;DHT22;9109;48.050;11.696;2023-05-14T09:24:35;11.70;99.90
17968;DHT22;9109;48.050;11.696;2023-05-14T09:27:38;11.60;99.90
17968;DHT22;9109;48.050;11.696;2023-05-14T09:30:40;11.50;99.90
17968;DHT22;9109;48.050;11.696;2023-05-14T09:33:42;11.50;99.90
17968;DHT22;9109;48.050;11.696;2023-05-14T09:36:51;11.50;99.90
17968;DHT22;9109;48.050;11.696;2023-05-14T09:39:56;11.50;99.90
17968;DHT22;9109;48.050;11.696;2023-05-14T09:43:00;11.40;99.90
17968;DHT22;9109;48.050;11.696;2023-05-14T09:46:03;11.50;99.90
17968;DHT22;9109;48.050;11.696;2023-05-14T09:49:07;11.50;99.90
17968;DHT22;9109;48.050;11.696;2023-05-14T09:52:10;11.50;99.90
17968;DHT22;9109;48.050;11.696;2023-05-14T09:55:14;11.60;99.90
17968;DHT22;9109;48.050;11.696;2023-05-14T09:58:16;11.50;99.90
17968;DHT22;9109;48.050;11.696;2023-05-14T10:01:20;11.40;99.90
17968;DHT22;9109;48.050;11.696;2023-05-14T10:04:25;11.30;99.90
17968;DHT22;9109;48.050;11.696;2023-05-14T10:07:30;11.30;99.90
17968;DHT22;9109;48.050;11.696;2023-05-14T10:10:36;11.20;99.90
17968;DHT22;9109;48.050;11.696;2023-05-14T10:13:41;11.30;99.90
17968;DHT22;9109;48.050;11.696;2023-05-14T10:16:46;11.30;99.90
17968;DHT22;9109;48.050;11.696;2023-05-14T10:19:52;11.50;99.90
17968;DHT22;9109;48.050;11.696;2023-05-14T10:22:55;11.80;99.90
17968;DHT22;9109;48.050;11.696;2023-05-14T10:25:59;11.90;99.90
17968;DHT22;9109;48.050;11.696;2023-05-14T10:29:01;12.10;99.90
17968;DHT22;9109;48.050;11.696;2023-05-14T10:32:05;12.10;99.90
17968;DHT22;9109;48.050;11.696;2023-05-14T10:35:17;12.20;99.90
17968;DHT22;9109;48.050;11.696;2023-05-14T10:38:22;12.40;99.90
17968;DHT22;9109;48.050;11.696;2023-05-14T10:41:27;12.60;99.90
17968;DHT22;9109;48.050;11.696;2023-05-14T10:44:31;12.90;99.90
17968;DHT22;9109;48.050;11.696;2023-05-14T10:47:35;13.00;99.90
17968;DHT22;9109;48.050;11.696;2023-05-14T10:50:37;13.00;99.90
17968;DHT22;9109;48.050;11.696;2023-05-14T10:53:41;13.00;99.90
17968;DHT22;9109;48.050;11.696;2023-05-14T10:56:45;12.90;99.90
17968;DHT22;9109;48.050;11.696;2023-05-14T10:59:48;12.90;99.90
17968;DHT22;9109;48.050;11.696;2023-05-14T11:02:55;12.90;99.90
17968;DHT22;9109;48.050;11.696;2023-05-14T11:05:59;12.90;99.90
17968;DHT22;9109;48.050;11.696;2023-05-14T11:09:04;12.90;99.90
17968;DHT22;9109;48.050;11.696;2023-05-14T11:12:09;12.90;99.90
17968;DHT22;9109;48.050;11.696;2023-05-14T11:15:13;13.20;99.90
17968;DHT22;9109;48.050;11.696;2023-05-14T11:18:25;13.40;99.90
17968;DHT22;9109;48.050;11.696;2023-05-14T11:21:28;13.60;99.90
17968;DHT22;9109;48.050;11.696;2023-05-14T11:24:31;13.90;99.90
17968;DHT22;9109;48.050;11.696;2023-05-14T11:27:37;14.10;99.90
17968;DHT22;9109;48.050;11.696;2023-05-14T11:30:39;14.40;99.90
17968;DHT22;9109;48.050;11.696;2023-05-14T11:33:41;14.50;99.90
17968;DHT22;9109;48.050;11.696;2023-05-14T11:36:43;14.40;99.90
17968;DHT22;9109;48.050;11.696;2023-05-14T11:39:47;14.30;99.90
17968;DHT22;9109;48.050;11.696;2023-05-14T11:42:51;14.30;99.90
17968;DHT22;9109;48.050;11.696;2023-05-14T11:45:53;14.40;99.90
17968;DHT22;9109;48.050;11.696;2023-05-14T11:48:56;14.60;99.90
17968;DHT22;9109;48.050;11.696;2023-05-14T11:51:58;14.60;99.90
17968;DHT22;9109;48.050;11.696;2023-05-14T11:55:00;14.70;99.90
17968;DHT22;9109;48.050;11.696;2023-05-14T11:58:04;14.80;99.90
17968;DHT22;9109;48.050;11.696;2023-05-14T12:01:12;14.60;99.90
17968;DHT22;9109;48.050;11.696;2023-05-14T12:04:14;14.20;99.90
17968;DHT22;9109;48.050;11.696;2023-05-14T12:07:22;14.10;99.90
17968;DHT22;9109;48.050;11.696;2023-05-14T12:10:24;13.90;99.90
17968;DHT22;9109;48.050;11.696;2023-05-14T12:13:31;14.20;99.90
17968;DHT22;9109;48.050;11.696;2023-05-14T12:16:33;14.70;99.90
17968;DHT22;9109;48.050;11.696;2023-05-14T12:19:39;14.60;99.90
17968;DHT22;9109;48.050;11.696;2023-05-14T12:22:41;14.80;99.90
17968;DHT22;9109;48.050;11.696;2023-05-14T12:25:49;14.80;99.90
17968;DHT22;9109;48.050;11.696;2023-05-14T12:28:58;14.80;99.90
17968;DHT22;9109;48.050;11.696;2023-05-14T12:32:01;14.90;99.90
17968;DHT22;9109;48.050;11.696;2023-05-14T12:35:05;14.90;99.90
17968;DHT22;9109;48.050;11.696;2023-05-14T12:38:07;14.60;99.90
17968;DHT22;9109;48.050;11.696;2023-05-14T12:41:09;14.80;99.90
17968;DHT22;9109;48.050;11.696;2023-05-14T12:44:13;14.70;99.90
17968;DHT22;9109;48.050;11.696;2023-05-14T12:47:15;15.00;99.90
17968;DHT22;9109;48.050;11.696;2023-05-14T12:50:17;15.30;99.90
17968;DHT22;9109;48.050;11.696;2023-05-14T12:53:19;14.90;99.90
17968;DHT22;9109;48.050;11.696;2023-05-14T12:56:21;14.80;99.90
17968;DHT22;9109;48.050;11.696;2023-05-14T12:59:29;15.00;99.90
17968;DHT22;9109;48.050;11.696;2023-05-14T13:02:31;15.10;99.90
17968;DHT22;9109;48.050;11.696;2023-05-14T13:05:32;15.30;99.90
17968;DHT22;9109;48.050;11.696;2023-05-14T13:08:34;15.60;99.90
17968;DHT22;9109;48.050;11.696;2023-05-14T13:11:39;15.70;99.90
17968;DHT22;9109;48.050;11.696;2023-05-14T13:14:42;15.80;99.90
17968;DHT22;9109;48.050;11.696;2023-05-14T13:17:44;15.90;99.90
17968;DHT22;9109;48.050;11.696;2023-05-14T13:20:46;15.90;99.90
17968;DHT22;9109;48.050;11.696;2023-05-14T13:23:48;16.00;99.90
17968;DHT22;9109;48.050;11.696;2023-05-14T13:26:50;16.10;99.90
17968;DHT22;9109;48.050;11.696;2023-05-14T13:29:54;16.20;99.90
17968;DHT22;9109;48.050;11.696;2023-05-14T13:33:02;16.40;99.90
17968;DHT22;9109;48.050;11.696;2023-05-14T13:36:04;16.40;99.90
17968;DHT22;9109;48.050;11.696;2023-05-14T13:39:08;16.60;99.40
17968;DHT22;9109;48.050;11.696;2023-05-14T13:42:11;16.60;98.80
17968;DHT22;9109;48.050;11.696;2023-05-14T13:45:14;16.30;98.20
17968;DHT22;9109;48.050;11.696;2023-05-14T13:48:16;16.30;99.30
17968;DHT22;9109;48.050;11.696;2023-05-14T13:51:18;16.30;99.20
17968;DHT22;9109;48.050;11.696;2023-05-14T13:54:20;16.20;99.90
17968;DHT22;9109;48.050;11.696;2023-05-14T13:57:22;16.20;99.90
17968;DHT22;9109;48.050;11.696;2023-05-14T14:00:26;16.30;99.90
17968;DHT22;9109;48.050;11.696;2023-05-14T14:03:28;16.40;99.90
17968;DHT22;9109;48.050;11.696;2023-05-14T14:06:30;16.30;98.80
17968;DHT22;9109;48.050;11.696;2023-05-14T14:09:33;16.20;98.40
17968;DHT22;9109;48.050;11.696;2023-05-14T14:12:36;16.60;99.00
17968;DHT22;9109;48.050;11.696;2023-05-14T14:15:39;16.70;97.10
17968;DHT22;9109;48.050;11.696;2023-05-14T14:18:42;16.70;97.50
17968;DHT22;9109;48.050;11.696;2023-05-14T14:21:44;16.50;97.90
17968;DHT22;9109;48.050;11.696;2023-05-14T14:24:49;16.40;98.30
17968;DHT22;9109;48.050;11.696;2023-05-14T14:27:51;16.40;98.20
17968;DHT22;9109;48.050;11.696;2023-05-14T14:30:54;16.30;98.30
17968;DHT22;9109;48.050;11.696;2023-05-14T14:33:56;16.40;98.40
17968;DHT22;9109;48.050;11.696;2023-05-14T14:36:58;16.40;97.70
17968;DHT22;9109;48.050;11.696;2023-05-14T14:40:03;16.40;97.60
17968;DHT22;9109;48.050;11.696;2023-05-14T14:43:06;16.50;98.40
17968;DHT22;9109;48.050;11.696;2023-05-14T14:46:10;16.70;96.20
17968;DHT22;9109;48.050;11.696;2023-05-14T14:49:12;16.50;94.60
17968;DHT22;9109;48.050;11.696;2023-05-14T14:52:14;16.30;94.30
17968;DHT22;9109;48.050;11.696;2023-05-14T14:55:16;16.20;94.80
17968;DHT22;9109;48.050;11.696;2023-05-14T14:58:19;16.10;95.40
17968;DHT22;9109;48.050;11.696;2023-05-14T15:01:22;16.20;96.30
17968;DHT22;9109;48.050;11.696;2023-05-14T15:04:24;16.30;95.30
17968;DHT22;9109;48.050;11.696;2023-05-14T15:07:26;16.60;95.70
17968;DHT22;9109;48.050;11.696;2023-05-14T15:10:32;16.70;94.10
17968;DHT22;9109;48.050;11.696;2023-05-14T15:13:37;16.70;93.40
17968;DHT22;9109;48.050;11.696;2023-05-14T15:16:41;16.80;93.90
17968;DHT22;9109;48.050;11.696;2023-05-14T15:19:43;16.60;93.90
17968;DHT22;9109;48.050;11.696;2023-05-14T15:22:48;16.60;94.40
17968;DHT22;9109;48.050;11.696;2023-05-14T15:25:52;16.60;94.60
17968;DHT22;9109;48.050;11.696;2023-05-14T15:28:54;16.60;93.90
17968;DHT22;9109;48.050;11.696;2023-05-14T15:31:58;16.70;95.50
17968;DHT22;9109;48.050;11.696;2023-05-14T15:35:01;16.70;94.70
17968;DHT22;9109;48.050;11.696;2023-05-14T15:38:03;16.90;95.70
17968;DHT22;9109;48.050;11.696;2023-05-14T15:41:05;17.00;96.30
17968;DHT22;9109;48.050;11.696;2023-05-14T15:44:07;17.00;94.70
17968;DHT22;9109;48.050;11.696;2023-05-14T15:47:10;16.80;95.30
17968;DHT22;9109;48.050;11.696;2023-05-14T15:50:13;16.70;95.10
17968;DHT22;9109;48.050;11.696;2023-05-14T15:53:15;16.50;95.90
17968;DHT22;9109;48.050;11.696;2023-05-14T15:56:17;16.10;94.00
17968;DHT22;9109;48.050;11.696;2023-05-14T15:59:20;15.60;94.80
17968;DHT22;9109;48.050;11.696;2023-05-14T16:02:26;15.10;95.40
17968;DHT22;9109;48.050;11.696;2023-05-14T16:05:29;14.80;95.80
17968;DHT22;9109;48.050;11.696;2023-05-14T16:08:31;14.30;95.70
17968;DHT22;9109;48.050;11.696;2023-05-14T16:11:33;14.10;98.60
17968;DHT22;9109;48.050;11.696;2023-05-14T16:14:36;13.70;99.90
17968;DHT22;9109;48.050;11.696;2023-05-14T16:17:39;13.50;99.90
17968;DHT22;9109;48.050;11.696;2023-05-14T16:20:41;13.50;99.90
17968;DHT22;9109;48.050;11.696;2023-05-14T16:23:43;13.40;99.90
17968;DHT22;9109;48.050;11.696;2023-05-14T16:26:48;13.20;99.90
17968;DHT22;9109;48.050;11.696;2023-05-14T16:29:51;13.10;99.90
17968;DHT22;9109;48.050;11.696;2023-05-14T16:32:55;13.20;99.90
17968;DHT22;9109;48.050;11.696;2023-05-14T16:36:16;13.20;99.90
17968;DHT22;9109;48.050;11.696;2023-05-14T16:43:00;12.90;99.90
17968;DHT22;9109;48.050;11.696;2023-05-14T16:46:05;12.80;99.90
17968;DHT22;9109;48.050;11.696;2023-05-14T16:49:24;12.90;99.90
17968;DHT22;9109;48.050;11.696;2023-05-14T16:52:26;12.60;99.90
17968;DHT22;9109;48.050;11.696;2023-05-14T16:55:40;12.70;99.90
17968;DHT22;9109;48.050;11.696;2023-05-14T16:58:42;12.60;99.90
17968;DHT22;9109;48.050;11.696;2023-05-14T17:01:44;12.40;99.90
17968;DHT22;9109;48.050;11.696;2023-05-14T17:04:49;12.50;99.90
17968;DHT22;9109;48.050;11.696;2023-05-14T17:07:51;12.50;99.90
17968;DHT22;9109;48.050;11.696;2023-05-14T17:10:53;12.20;99.90
17968;DHT22;9109;48.050;11.696;2023-05-14T17:13:56;12.40;99.90
17968;DHT22;9109;48.050;11.696;2023-05-14T17:16:58;12.40;99.90
17968;DHT22;9109;48.050;11.696;2023-05-14T17:20:01;12.40;99.90
17968;DHT22;9109;48.050;11.696;2023-05-14T17:23:05;12.50;99.90
17968;DHT22;9109;48.050;11.696;2023-05-14T17:26:07;12.60;99.90
17968;DHT22;9109;48.050;11.696;2023-05-14T17:29:11;12.80;99.90
17968;DHT22;9109;48.050;11.696;2023-05-14T17:32:13;12.70;99.90
17968;DHT22;9109;48.050;11.696;2023-05-14T17:35:19;12.70;99.90
17968;DHT22;9109;48.050;11.696;2023-05-14T17:38:22;12.80;99.90
17968;DHT22;9109;48.050;11.696;2023-05-14T17:41:27;12.80;99.90
17968;DHT22;9109;48.050;11.696;2023-05-14T17:44:29;12.90;99.90
17968;DHT22;9109;48.050;11.696;2023-05-14T17:47:31;12.90;99.90
17968;DHT22;9109;48.050;11.696;2023-05-14T17:50:39;12.80;99.90
17968;DHT22;9109;48.050;11.696;2023-05-14T17:53:43;12.70;99.90
17968;DHT22;9109;48.050;11.696;2023-05-14T17:56:51;12.80;99.90
17968;DHT22;9109;48.050;11.696;2023-05-14T18:00:16;12.90;99.90
17968;DHT22;9109;48.050;11.696;2023-05-14T18:03:23;12.90;99.90
17968;DHT22;9109;48.050;11.696;2023-05-14T18:06:31;12.90;99.90
17968;DHT22;9109;48.050;11.696;2023-05-14T18:09:35;13.00;99.90
17968;DHT22;9109;48.050;11.696;2023-05-14T18:12:37;13.00;99.90
17968;DHT22;9109;48.050;11.696;2023-05-14T18:15:40;13.00;99.90
17968;DHT22;9109;48.050;11.696;2023-05-14T18:18:42;13.00;99.90
17968;DHT22;9109;48.050;11.696;2023-05-14T18:21:47;13.00;99.90
17968;DHT22;9109;48.050;11.696;2023-05-14T18:24:50;13.10;99.90
17968;DHT22;9109;48.050;11.696;2023-05-14T18:27:52;13.10;99.90
17968;DHT22;9109;48.050;11.696;2023-05-14T18:30:54;13.10;99.90
17968;DHT22;9109;48.050;11.696;2023-05-14T18:33:56;13.20;99.90
17968;DHT22;9109;48.050;11.696;2023-05-14T18:37:00;13.20;99.90
17968;DHT22;9109;48.050;11.696;2023-05-14T18:40:02;13.30;99.90
17968;DHT22;9109;48.050;11.696;2023-05-14T18:43:06;13.40;99.90
17968;DHT22;9109;48.050;11.696;2023-05-14T18:46:08;13.50;99.90
17968;DHT22;9109;48.050;11.696;2023-05-14T18:49:10;13.50;99.90
17968;DHT22;9109;48.050;11.696;2023-05-14T18:52:13;13.50;99.90
17968;DHT22;9109;48.050;11.696;2023-05-14T18:55:22;13.50;99.90
17968;DHT22;9109;48.050;11.696;2023-05-14T18:58:24;13.50;99.90
17968;DHT22;9109;48.050;11.696;2023-05-14T19:01:26;13.50;99.90
17968;DHT22;9109;48.050;11.696;2023-05-14T19:04:28;13.50;99.90
17968;DHT22;9109;48.050;11.696;2023-05-14T19:07:31;13.40;99.90
17968;DHT22;9109;48.050;11.696;2023-05-14T19:10:33;13.40;99.90
17968;DHT22;9109;48.050;11.696;2023-05-14T19:13:35;13.40;99.90
17968;DHT22;9109;48.050;11.696;2023-05-14T19:16:37;13.50;99.90
17968;DHT22;9109;48.050;11.696;2023-05-14T19:19:39;13.40;99.90
17968;DHT22;9109;48.050;11.696;2023-05-14T19:22:42;13.40;99.90
17968;DHT22;9109;48.050;11.696;2023-05-14T19:25:44;13.30;99.90
17968;DHT22;9109;48.050;11.696;2023-05-14T19:28:46;13.30;99.90
17968;DHT22;9109;48.050;11.696;2023-05-14T19:31:48;13.30;99.90
17968;DHT22;9109;48.050;11.696;2023-05-14T19:34:50;13.20;99.90
17968;DHT22;9109;48.050;11.696;2023-05-14T19:37:53;13.20;99.90
17968;DHT22;9109;48.050;11.696;2023-05-14T19:40:55;13.30;99.90
17968;DHT22;9109;48.050;11.696;2023-05-14T19:43:57;13.20;99.90
17968;DHT22;9109;48.050;11.696;2023-05-14T19:46:59;13.20;99.90
17968;DHT22;9109;48.050;11.696;2023-05-14T19:50:02;13.30;99.90
17968;DHT22;9109;48.050;11.696;2023-05-14T19:53:05;13.30;99.90
17968;DHT22;9109;48.050;11.696;2023-05-14T19:56:07;13.30;99.90
17968;DHT22;9109;48.050;11.696;2023-05-14T19:59:09;13.20;99.90
17968;DHT22;9109;48.050;11.696;2023-05-14T20:02:14;13.20;99.90
17968;DHT22;9109;48.050;11.696;2023-05-14T20:05:17;13.10;99.90
17968;DHT22;9109;48.050;11.696;2023-05-14T20:08:21;13.00;99.90
17968;DHT22;9109;48.050;11.696;2023-05-14T20:11:24;13.10;99.90
17968;DHT22;9109;48.050;11.696;2023-05-14T20:14:26;13.10;99.90
17968;DHT22;9109;48.050;11.696;2023-05-14T20:17:28;13.10;99.90
17968;DHT22;9109;48.050;11.696;2023-05-14T20:20:30;13.20;99.90
17968;DHT22;9109;48.050;11.696;2023-05-14T20:23:34;13.20;99.90
17968;DHT22;9109;48.050;11.696;2023-05-14T20:26:36;13.10;99.90
17968;DHT22;9109;48.050;11.696;2023-05-14T20:29:38;13.20;99.90
17968;DHT22;9109;48.050;11.696;2023-05-14T20:32:40;13.20;99.90
17968;DHT22;9109;48.050;11.696;2023-05-14T20:35:42;13.20;99.90
17968;DHT22;9109;48.050;11.696;2023-05-14T20:38:51;13.20;99.90
17968;DHT22;9109;48.050;11.696;2023-05-14T20:41:53;13.20;99.90
17968;DHT22;9109;48.050;11.696;2023-05-14T20:44:55;13.10;99.90
17968;DHT22;9109;48.050;11.696;2023-05-14T20:47:57;13.10;99.90
17968;DHT22;9109;48.050;11.696;2023-05-14T20:50:59;13.10;99.90
17968;DHT22;9109;48.050;11.696;2023-05-14T20:54:05;13.10;99.90
17968;DHT22;9109;48.050;11.696;2023-05-14T20:57:07;12.90;99.90
17968;DHT22;9109;48.050;11.696;2023-05-14T21:00:10;12.90;99.90
17968;DHT22;9109;48.050;11.696;2023-05-14T21:03:13;12.90;99.90
17968;DHT22;9109;48.050;11.696;2023-05-14T21:06:15;12.90;99.90
17968;DHT22;9109;48.050;11.696;2023-05-14T21:09:18;13.00;99.90
17968;DHT22;9109;48.050;11.696;2023-05-14T21:12:22;13.00;99.90
17968;DHT22;9109;48.050;11.696;2023-05-14T21:15:24;13.00;99.90
17968;DHT22;9109;48.050;11.696;2023-05-14T21:18:27;13.00;99.90
17968;DHT22;9109;48.050;11.696;2023-05-14T21:21:32;13.00;99.90
17968;DHT22;9109;48.050;11.696;2023-05-14T21:24:35;12.90;99.90
17968;DHT22;9109;48.050;11.696;2023-05-14T21:27:37;12.90;99.90
17968;DHT22;9109;48.050;11.696;2023-05-14T21:30:39;12.80;99.90
17968;DHT22;9109;48.050;11.696;2023-05-14T21:33:41;12.80;99.90
17968;DHT22;9109;48.050;11.696;2023-05-14T21:36:43;12.60;99.90
17968;DHT22;9109;48.050;11.696;2023-05-14T21:39:46;12.40;99.90
17968;DHT22;9109;48.050;11.696;2023-05-14T21:42:48;12.30;99.90
17968;DHT22;9109;48.050;11.696;2023-05-14T21:45:50;12.10;99.90
17968;DHT22;9109;48.050;11.696;2023-05-14T21:48:52;12.00;99.90
17968;DHT22;9109;48.050;11.696;2023-05-14T21:51:54;11.90;99.90
17968;DHT22;9109;48.050;11.696;2023-05-14T21:54:58;12.00;99.90
17968;DHT22;9109;48.050;11.696;2023-05-14T21:58:00;12.10;99.90
17968;DHT22;9109;48.050;11.696;2023-05-14T22:01:02;12.10;99.90
17968;DHT22;9109;48.050;11.696;2023-05-14T22:04:04;12.10;99.90
17968;DHT22;9109;48.050;11.696;2023-05-14T22:07:06;12.00;99.90
17968;DHT22;9109;48.050;11.696;2023-05-14T22:10:11;12.00;99.90
17968;DHT22;9109;48.050;11.696;2023-05-14T22:13:13;11.80;99.90
17968;DHT22;9109;48.050;11.696;2023-05-14T22:16:15;11.80;99.90
17968;DHT22;9109;48.050;11.696;2023-05-14T22:19:19;11.60;99.90
17968;DHT22;9109;48.050;11.696;2023-05-14T22:22:22;11.50;99.90
17968;DHT22;9109;48.050;11.696;2023-05-14T22:25:49;11.40;99.90
17968;DHT22;9109;48.050;11.696;2023-05-14T22:28:59;11.60;99.90
17968;DHT22;9109;48.050;11.696;2023-05-14T22:32:22;11.80;99.90
17968;DHT22;9109;48.050;11.696;2023-05-14T22:35:35;12.00;99.90
17968;DHT22;9109;48.050;11.696;2023-05-14T22:39:04;12.10;99.90
17968;DHT22;9109;48.050;11.696;2023-05-14T22:42:19;12.10;99.90
17968;DHT22;9109;48.050;11.696;2023-05-14T22:45:53;12.10;99.90
17968;DHT22;9109;48.050;11.696;2023-05-14T22:49:12;12.20;99.90
17968;DHT22;9109;48.050;11.696;2023-05-14T22:52:37;12.20;99.90
17968;DHT22;9109;48.050;11.696;2023-05-14T22:55:57;12.00;99.90
17968;DHT22;9109;48.050;11.696;2023-05-14T22:59:28;11.70;99.90
